sensor_id;sensor_type;location;lat;lon;timestamp;pressure;altitude;pressure_sealevel;temperature;humidity
71504;BME280;59323;50.874;7.028;2023-09-19T00:00:01;100514.13;;;16.69;92.06
71504;BME280;59323;50.874;7.028;2023-09-19T00:02:26;100507.47;;;16.70;92.28
71504;BME280;59323;50.874;7.028;2023-09-19T00:04:52;100502.81;;;16.64;91.70
71504;BME280;59323;50.874;7.028;2023-09-19T00:07:18;100516.53;;;16.67;92.11
71504;BME280;59323;50.874;7.028;2023-09-19T00:09:44;100508.41;;;16.57;92.42
71504;BME280;59323;50.874;7.028;2023-09-19T00:12:09;100515.53;;;16.51;92.25
71504;BME280;59323;50.874;7.028;2023-09-19T00:14:35;100519.00;;;16.55;92.46
71504;BME280;59323;50.874;7.028;2023-09-19T00:17:03;100518.63;;;16.53;92.48
71504;BME280;59323;50.874;7.028;2023-09-19T00:19:31;100520.97;;;16.54;92.26
71504;BME280;59323;50.874;7.028;2023-09-19T00:21:58;100533.16;;;16.49;91.97
71504;BME280;59323;50.874;7.028;2023-09-19T00:24:23;100530.78;;;16.52;92.25
71504;BME280;59323;50.874;7.028;2023-09-19T00:26:49;100522.28;;;16.42;91.85
71504;BME280;59323;50.874;7.028;2023-09-19T00:29:14;100543.00;;;16.47;92.21
71504;BME280;59323;50.874;7.028;2023-09-19T00:31:44;100526.56;;;16.43;92.26
71504;BME280;59323;50.874;7.028;2023-09-19T00:34:10;100522.72;;;16.37;91.85
71504;BME280;59323;50.874;7.028;2023-09-19T00:36:39;100532.09;;;16.40;91.86
71504;BME280;59323;50.874;7.028;2023-09-19T00:39:05;100507.16;;;16.27;92.27
71504;BME280;59323;50.874;7.028;2023-09-19T00:41:34;100517.31;;;16.30;92.25
71504;BME280;59323;50.874;7.028;2023-09-19T00:44:03;100516.97;;;16.25;92.17
71504;BME280;59323;50.874;7.028;2023-09-19T00:46:30;100524.00;;;16.29;92.72
71504;BME280;59323;50.874;7.028;2023-09-19T00:49:04;100531.06;;;16.27;93.02
71504;BME280;59323;50.874;7.028;2023-09-19T00:51:34;100539.22;;;16.34;92.46
71504;BME280;59323;50.874;7.028;2023-09-19T00:54:02;100547.03;;;16.35;93.16
71504;BME280;59323;50.874;7.028;2023-09-19T00:56:31;100549.41;;;16.33;92.70
71504;BME280;59323;50.874;7.028;2023-09-19T00:59:01;100535.78;;;16.26;92.16
71504;BME280;59323;50.874;7.028;2023-09-19T01:01:27;100542.03;;;16.27;92.33
71504;BME280;59323;50.874;7.028;2023-09-19T01:03:52;100548.66;;;16.29;93.00
71504;BME280;59323;50.874;7.028;2023-09-19T01:06:18;100555.31;;;16.32;93.24
71504;BME280;59323;50.874;7.028;2023-09-19T01:08:43;100542.81;;;16.24;93.05
71504;BME280;59323;50.874;7.028;2023-09-19T01:11:14;100541.66;;;16.21;92.89
71504;BME280;59323;50.874;7.028;2023-09-19T01:14:05;100556.91;;;16.29;92.76
71504;BME280;59323;50.874;7.028;2023-09-19T01:16:53;100564.69;;;16.34;93.08
71504;BME280;59323;50.874;7.028;2023-09-19T01:27:57;100559.59;;;16.33;91.94
71504;BME280;59323;50.874;7.028;2023-09-19T01:30:33;100558.84;;;16.29;91.87
71504;BME280;59323;50.874;7.028;2023-09-19T01:33:01;100557.28;;;16.31;91.93
71504;BME280;59323;50.874;7.028;2023-09-19T01:35:27;100572.47;;;16.39;91.37
71504;BME280;59323;50.874;7.028;2023-09-19T01:37:52;100575.59;;;16.38;91.23
71504;BME280;59323;50.874;7.028;2023-09-19T01:40:20;100574.09;;;16.33;91.89
71504;BME280;59323;50.874;7.028;2023-09-19T01:51:08;100585.00;;;16.40;91.28
71504;BME280;59323;50.874;7.028;2023-09-19T01:53:41;100598.75;;;16.37;91.40
71504;BME280;59323;50.874;7.028;2023-09-19T01:56:12;100594.13;;;16.27;91.88
71504;BME280;59323;50.874;7.028;2023-09-19T01:58:49;100597.16;;;16.39;89.15
71504;BME280;59323;50.874;7.028;2023-09-19T02:01:23;100603.41;;;16.40;88.66
71504;BME280;59323;50.874;7.028;2023-09-19T02:03:50;100605.38;;;16.39;88.69
71504;BME280;59323;50.874;7.028;2023-09-19T02:06:18;100613.22;;;16.37;87.11
71504;BME280;59323;50.874;7.028;2023-09-19T02:08:45;100606.28;;;16.26;87.83
71504;BME280;59323;50.874;7.028;2023-09-19T02:11:13;100600.03;;;16.22;87.60
71504;BME280;59323;50.874;7.028;2023-09-19T02:13:39;100608.22;;;16.25;86.33
71504;BME280;59323;50.874;7.028;2023-09-19T02:16:06;100614.47;;;16.29;85.49
71504;BME280;59323;50.874;7.028;2023-09-19T02:18:32;100620.78;;;16.26;87.54
71504;BME280;59323;50.874;7.028;2023-09-19T02:21:00;100614.19;;;16.16;87.98
71504;BME280;59323;50.874;7.028;2023-09-19T02:23:26;100624.78;;;16.14;87.45
71504;BME280;59323;50.874;7.028;2023-09-19T02:25:52;100611.13;;;16.07;87.57
71504;BME280;59323;50.874;7.028;2023-09-19T02:28:18;100629.16;;;16.05;88.33
71504;BME280;59323;50.874;7.028;2023-09-19T02:30:47;100623.69;;;16.05;87.42
71504;BME280;59323;50.874;7.028;2023-09-19T02:33:13;100623.69;;;16.05;86.41
71504;BME280;59323;50.874;7.028;2023-09-19T02:35:48;100621.75;;;16.02;86.89
71504;BME280;59323;50.874;7.028;2023-09-19T02:38:14;100622.22;;;15.93;87.38
71504;BME280;59323;50.874;7.028;2023-09-19T02:40:43;100618.72;;;15.89;87.43
71504;BME280;59323;50.874;7.028;2023-09-19T02:43:09;100627.72;;;15.90;88.01
71504;BME280;59323;50.874;7.028;2023-09-19T02:45:35;100610.94;;;15.80;87.67
71504;BME280;59323;50.874;7.028;2023-09-19T02:48:00;100628.94;;;15.81;87.65
71504;BME280;59323;50.874;7.028;2023-09-19T02:50:27;100639.09;;;15.84;88.63
71504;BME280;59323;50.874;7.028;2023-09-19T02:52:53;100639.50;;;15.83;89.00
71504;BME280;59323;50.874;7.028;2023-09-19T02:55:19;100639.94;;;15.78;88.36
71504;BME280;59323;50.874;7.028;2023-09-19T02:58:03;100636.88;;;15.69;89.35
71504;BME280;59323;50.874;7.028;2023-09-19T03:00:30;100630.59;;;15.68;88.38
71504;BME280;59323;50.874;7.028;2023-09-19T03:02:56;100643.84;;;15.77;88.34
71504;BME280;59323;50.874;7.028;2023-09-19T03:05:23;100627.50;;;15.63;89.40
71504;BME280;59323;50.874;7.028;2023-09-19T03:07:49;100638.03;;;15.68;89.43
71504;BME280;59323;50.874;7.028;2023-09-19T03:10:16;100631.81;;;15.60;88.72
71504;BME280;59323;50.874;7.028;2023-09-19T03:12:42;100632.56;;;15.57;89.42
71504;BME280;59323;50.874;7.028;2023-09-19T03:15:08;100649.81;;;15.65;89.64
71504;BME280;59323;50.874;7.028;2023-09-19T03:17:34;100647.84;;;15.58;89.45
71504;BME280;59323;50.874;7.028;2023-09-19T03:20:00;100649.03;;;15.53;89.03
71504;BME280;59323;50.874;7.028;2023-09-19T03:22:27;100648.63;;;15.55;89.03
71504;BME280;59323;50.874;7.028;2023-09-19T03:24:52;100657.22;;;15.57;88.74
71504;BME280;59323;50.874;7.028;2023-09-19T03:27:18;100653.34;;;15.58;87.39
71504;BME280;59323;50.874;7.028;2023-09-19T03:29:44;100664.69;;;15.60;87.07
71504;BME280;59323;50.874;7.028;2023-09-19T03:32:09;100670.16;;;15.60;87.92
71504;BME280;59323;50.874;7.028;2023-09-19T03:34:38;100653.72;;;15.53;87.17
71504;BME280;59323;50.874;7.028;2023-09-19T03:37:11;100665.84;;;15.55;88.42
71504;BME280;59323;50.874;7.028;2023-09-19T03:39:37;100660.81;;;15.43;87.35
71504;BME280;59323;50.874;7.028;2023-09-19T03:42:03;100658.47;;;15.45;87.78
71504;BME280;59323;50.874;7.028;2023-09-19T03:44:32;100655.69;;;15.52;88.11
71504;BME280;59323;50.874;7.028;2023-09-19T03:47:00;100650.66;;;15.44;88.07
71504;BME280;59323;50.874;7.028;2023-09-19T03:49:26;100660.38;;;15.52;88.59
71504;BME280;59323;50.874;7.028;2023-09-19T03:51:51;100653.78;;;15.46;88.89
71504;BME280;59323;50.874;7.028;2023-09-19T03:54:42;100658.03;;;15.50;89.40
71504;BME280;59323;50.874;7.028;2023-09-19T03:57:08;100650.66;;;15.44;88.40
71504;BME280;59323;50.874;7.028;2023-09-19T03:59:33;100652.19;;;15.48;88.99
71504;BME280;59323;50.874;7.028;2023-09-19T04:02:00;100653.75;;;15.49;88.55
71504;BME280;59323;50.874;7.028;2023-09-19T04:04:27;100643.25;;;15.37;88.77
71504;BME280;59323;50.874;7.028;2023-09-19T04:06:54;100646.78;;;15.38;89.01
71504;BME280;59323;50.874;7.028;2023-09-19T04:09:19;100658.09;;;15.40;88.99
71504;BME280;59323;50.874;7.028;2023-09-19T04:11:45;100638.97;;;15.33;87.45
71504;BME280;59323;50.874;7.028;2023-09-19T04:14:10;100655.41;;;15.33;87.90
71504;BME280;59323;50.874;7.028;2023-09-19T04:16:35;100652.28;;;15.31;87.65
71504;BME280;59323;50.874;7.028;2023-09-19T04:19:01;100648.38;;;15.32;87.68
71504;BME280;59323;50.874;7.028;2023-09-19T04:21:27;100656.59;;;15.32;87.81
71504;BME280;59323;50.874;7.028;2023-09-19T04:23:54;100649.56;;;15.27;86.74
71504;BME280;59323;50.874;7.028;2023-09-19T04:26:19;100656.22;;;15.22;87.02
71504;BME280;59323;50.874;7.028;2023-09-19T04:28:48;100651.53;;;15.23;86.43
71504;BME280;59323;50.874;7.028;2023-09-19T04:31:19;100652.72;;;15.22;87.11
71504;BME280;59323;50.874;7.028;2023-09-19T04:33:45;100661.31;;;15.24;87.63
71504;BME280;59323;50.874;7.028;2023-09-19T04:36:11;100665.63;;;15.21;87.13
71504;BME280;59323;50.874;7.028;2023-09-19T04:38:38;100656.25;;;15.15;87.51
71504;BME280;59323;50.874;7.028;2023-09-19T04:41:03;100665.22;;;15.23;87.29
71504;BME280;59323;50.874;7.028;2023-09-19T04:43:29;100661.34;;;15.17;86.86
71504;BME280;59323;50.874;7.028;2023-09-19T04:45:55;100657.03;;;15.16;86.83
71504;BME280;59323;50.874;7.028;2023-09-19T04:48:24;100662.53;;;15.12;87.22
71504;BME280;59323;50.874;7.028;2023-09-19T04:50:49;100667.19;;;15.19;87.09
71504;BME280;59323;50.874;7.028;2023-09-19T04:53:15;100671.91;;;15.15;87.24
71504;BME280;59323;50.874;7.028;2023-09-19T04:55:43;100676.59;;;15.14;87.42
71504;BME280;59323;50.874;7.028;2023-09-19T04:58:08;100675.44;;;15.08;87.56
71504;BME280;59323;50.874;7.028;2023-09-19T05:00:33;100682.09;;;15.11;87.76
71504;BME280;59323;50.874;7.028;2023-09-19T05:03:00;100687.19;;;15.05;87.73
71504;BME280;59323;50.874;7.028;2023-09-19T05:05:25;100697.72;;;15.10;88.48
71504;BME280;59323;50.874;7.028;2023-09-19T05:07:51;100700.47;;;15.10;88.71
71504;BME280;59323;50.874;7.028;2023-09-19T05:10:19;100688.38;;;15.04;87.62
71504;BME280;59323;50.874;7.028;2023-09-19T05:12:45;100687.59;;;14.97;87.83
71504;BME280;59323;50.874;7.028;2023-09-19T05:15:13;100706.38;;;14.98;88.36
71504;BME280;59323;50.874;7.028;2023-09-19T05:17:49;100698.56;;;14.79;88.05
71504;BME280;59323;50.874;7.028;2023-09-19T05:20:15;100714.56;;;14.84;88.76
71504;BME280;59323;50.874;7.028;2023-09-19T05:22:49;100718.50;;;14.79;88.99
71504;BME280;59323;50.874;7.028;2023-09-19T05:25:15;100725.91;;;14.82;89.61
71504;BME280;59323;50.874;7.028;2023-09-19T05:27:43;100717.72;;;14.75;89.96
71504;BME280;59323;50.874;7.028;2023-09-19T05:30:09;100707.16;;;14.70;89.53
71504;BME280;59323;50.874;7.028;2023-09-19T05:32:35;100711.88;;;14.66;89.65
71504;BME280;59323;50.874;7.028;2023-09-19T05:35:00;100713.44;;;14.60;89.12
71504;BME280;59323;50.874;7.028;2023-09-19T05:37:26;100724.38;;;14.60;89.94
71504;BME280;59323;50.874;7.028;2023-09-19T05:39:51;100743.91;;;14.66;89.90
71504;BME280;59323;50.874;7.028;2023-09-19T05:42:19;100739.59;;;14.65;89.69
71504;BME280;59323;50.874;7.028;2023-09-19T05:44:44;100749.38;;;14.66;89.84
71504;BME280;59323;50.874;7.028;2023-09-19T05:47:15;100734.53;;;14.63;88.70
71504;BME280;59323;50.874;7.028;2023-09-19T05:49:43;100741.19;;;14.62;89.17
71504;BME280;59323;50.874;7.028;2023-09-19T05:52:09;100754.06;;;14.65;89.79
71504;BME280;59323;50.874;7.028;2023-09-19T05:54:34;100746.25;;;14.60;89.75
71504;BME280;59323;50.874;7.028;2023-09-19T05:57:00;100756.41;;;14.67;90.23
71504;BME280;59323;50.874;7.028;2023-09-19T05:59:27;100766.97;;;14.72;90.31
71504;BME280;59323;50.874;7.028;2023-09-19T06:01:52;100759.16;;;14.67;90.27
71504;BME280;59323;50.874;7.028;2023-09-19T06:04:18;100770.88;;;14.74;89.94
71504;BME280;59323;50.874;7.028;2023-09-19T06:06:44;100763.84;;;14.70;90.01
71504;BME280;59323;50.874;7.028;2023-09-19T06:09:10;100774.38;;;14.78;89.98
71504;BME280;59323;50.874;7.028;2023-09-19T06:11:35;100777.50;;;14.80;90.18
71504;BME280;59323;50.874;7.028;2023-09-19T06:14:02;100781.81;;;14.85;90.18
71504;BME280;59323;50.874;7.028;2023-09-19T06:16:28;100782.19;;;14.76;90.23
71504;BME280;59323;50.874;7.028;2023-09-19T06:18:57;100793.13;;;14.83;90.31
71504;BME280;59323;50.874;7.028;2023-09-19T06:21:25;100797.03;;;14.82;90.32
71504;BME280;59323;50.874;7.028;2023-09-19T06:23:52;100799.78;;;14.86;89.90
71504;BME280;59323;50.874;7.028;2023-09-19T06:26:18;100793.53;;;14.85;90.35
71504;BME280;59323;50.874;7.028;2023-09-19T06:28:43;100804.47;;;14.89;90.19
71504;BME280;59323;50.874;7.028;2023-09-19T06:31:09;100803.69;;;14.92;90.01
71504;BME280;59323;50.874;7.028;2023-09-19T06:33:38;100810.31;;;14.95;90.02
71504;BME280;59323;50.874;7.028;2023-09-19T06:36:08;100802.91;;;14.91;90.02
71504;BME280;59323;50.874;7.028;2023-09-19T06:38:39;100804.84;;;14.91;89.94
71504;BME280;59323;50.874;7.028;2023-09-19T06:41:35;100804.09;;;14.98;90.03
71504;BME280;59323;50.874;7.028;2023-09-19T06:47:29;100809.56;;;15.01;89.17
71504;BME280;59323;50.874;7.028;2023-09-19T06:50:28;100813.06;;;15.12;89.00
71504;BME280;59323;50.874;7.028;2023-09-19T06:53:05;100800.97;;;15.06;87.86
71504;BME280;59323;50.874;7.028;2023-09-19T06:59:30;100820.47;;;15.30;87.74
71504;BME280;59323;50.874;7.028;2023-09-19T07:02:13;100807.97;;;15.25;87.52
71504;BME280;59323;50.874;7.028;2023-09-19T07:04:39;100822.78;;;15.42;87.27
71504;BME280;59323;50.874;7.028;2023-09-19T07:07:04;100809.09;;;15.42;87.51
71504;BME280;59323;50.874;7.028;2023-09-19T07:09:30;100813.78;;;15.48;86.85
71504;BME280;59323;50.874;7.028;2023-09-19T07:11:55;100818.84;;;15.57;87.16
71504;BME280;59323;50.874;7.028;2023-09-19T07:14:21;100815.75;;;15.66;87.16
71504;BME280;59323;50.874;7.028;2023-09-19T07:16:46;100821.97;;;15.73;85.76
71504;BME280;59323;50.874;7.028;2023-09-19T07:19:13;100825.09;;;15.79;85.71
71504;BME280;59323;50.874;7.028;2023-09-19T07:21:40;100828.16;;;15.92;84.43
71504;BME280;59323;50.874;7.028;2023-09-19T07:24:05;100816.41;;;15.95;84.37
71504;BME280;59323;50.874;7.028;2023-09-19T07:26:31;100819.09;;;16.05;84.75
71504;BME280;59323;50.874;7.028;2023-09-19T07:28:57;100831.97;;;16.15;84.11
71504;BME280;59323;50.874;7.028;2023-09-19T07:31:25;100814.66;;;16.29;83.59
71504;BME280;59323;50.874;7.028;2023-09-19T07:33:52;100818.91;;;16.41;82.09
71504;BME280;59323;50.874;7.028;2023-09-19T07:36:18;100817.25;;;16.54;82.33
71504;BME280;59323;50.874;7.028;2023-09-19T07:38:44;100820.31;;;16.63;81.09
71504;BME280;59323;50.874;7.028;2023-09-19T07:41:09;100835.50;;;16.78;80.93
71504;BME280;59323;50.874;7.028;2023-09-19T07:43:37;100839.34;;;16.88;81.13
71504;BME280;59323;50.874;7.028;2023-09-19T07:46:06;100829.91;;;16.96;81.22
71504;BME280;59323;50.874;7.028;2023-09-19T07:48:35;100842.25;;;17.19;81.08
71504;BME280;59323;50.874;7.028;2023-09-19T07:51:05;100836.28;;;17.27;79.54
71504;BME280;59323;50.874;7.028;2023-09-19T07:53:31;100837.75;;;17.39;78.86
71504;BME280;59323;50.874;7.028;2023-09-19T07:56:07;100834.06;;;17.53;78.61
71504;BME280;59323;50.874;7.028;2023-09-19T07:58:33;100830.03;;;17.64;78.36
71504;BME280;59323;50.874;7.028;2023-09-19T08:01:17;100845.44;;;17.92;78.38
71504;BME280;59323;50.874;7.028;2023-09-19T08:03:42;100842.09;;;18.08;77.63
71504;BME280;59323;50.874;7.028;2023-09-19T08:06:09;100843.84;;;18.25;76.91
71504;BME280;59323;50.874;7.028;2023-09-19T08:08:36;100836.69;;;18.31;75.29
71504;BME280;59323;50.874;7.028;2023-09-19T08:11:02;100858.44;;;18.49;74.86
71504;BME280;59323;50.874;7.028;2023-09-19T08:13:33;100851.63;;;18.57;73.71
71504;BME280;59323;50.874;7.028;2023-09-19T08:15:58;100839.00;;;18.63;73.68
71504;BME280;59323;50.874;7.028;2023-09-19T08:18:23;100840.44;;;18.72;73.50
71504;BME280;59323;50.874;7.028;2023-09-19T08:20:50;100839.41;;;18.89;72.67
71504;BME280;59323;50.874;7.028;2023-09-19T08:23:16;100842.69;;;19.04;72.22
71504;BME280;59323;50.874;7.028;2023-09-19T08:25:48;100840.72;;;19.04;70.75
71504;BME280;59323;50.874;7.028;2023-09-19T08:28:13;100849.22;;;19.13;71.51
71504;BME280;59323;50.874;7.028;2023-09-19T08:30:44;100843.53;;;19.24;70.17
71504;BME280;59323;50.874;7.028;2023-09-19T08:33:10;100837.94;;;19.27;69.52
71504;BME280;59323;50.874;7.028;2023-09-19T08:35:36;100831.69;;;19.47;70.36
71504;BME280;59323;50.874;7.028;2023-09-19T08:38:03;100835.16;;;19.51;68.33
71504;BME280;59323;50.874;7.028;2023-09-19T08:40:32;100831.19;;;19.55;67.70
71504;BME280;59323;50.874;7.028;2023-09-19T08:42:59;100842.56;;;19.77;67.55
71504;BME280;59323;50.874;7.028;2023-09-19T08:45:26;100836.19;;;19.80;66.94
71504;BME280;59323;50.874;7.028;2023-09-19T08:51:02;100829.88;;;20.00;66.69
71504;BME280;59323;50.874;7.028;2023-09-19T08:53:42;100840.13;;;19.99;65.52
71504;BME280;59323;50.874;7.028;2023-09-19T08:56:12;100842.47;;;20.01;64.98
71504;BME280;59323;50.874;7.028;2023-09-19T08:58:44;100844.16;;;20.14;65.48
71504;BME280;59323;50.874;7.028;2023-09-19T09:01:14;100843.84;;;20.29;65.83
71504;BME280;59323;50.874;7.028;2023-09-19T09:03:42;100834.22;;;20.37;65.45
71504;BME280;59323;50.874;7.028;2023-09-19T09:06:14;100830.47;;;20.47;64.17
71504;BME280;59323;50.874;7.028;2023-09-19T09:08:40;100834.59;;;20.55;63.33
71504;BME280;59323;50.874;7.028;2023-09-19T09:11:07;100837.53;;;20.64;62.42
71504;BME280;59323;50.874;7.028;2023-09-19T09:13:35;100835.56;;;20.65;61.96
71504;BME280;59323;50.874;7.028;2023-09-19T09:16:01;100838.50;;;20.74;61.51
71504;BME280;59323;50.874;7.028;2023-09-19T09:18:28;100838.75;;;20.79;61.68
71504;BME280;59323;50.874;7.028;2023-09-19T09:20:55;100842.59;;;20.85;62.88
71504;BME280;59323;50.874;7.028;2023-09-19T09:23:21;100841.97;;;20.94;62.98
71504;BME280;59323;50.874;7.028;2023-09-19T09:25:54;100852.66;;;21.08;60.66
71504;BME280;59323;50.874;7.028;2023-09-19T09:28:24;100835.84;;;21.03;60.90
71504;BME280;59323;50.874;7.028;2023-09-19T09:30:50;100841.78;;;21.17;61.48
71504;BME280;59323;50.874;7.028;2023-09-19T09:33:16;100838.06;;;21.24;60.14
71504;BME280;59323;50.874;7.028;2023-09-19T09:35:53;100847.63;;;21.36;60.98
71504;BME280;59323;50.874;7.028;2023-09-19T09:38:26;100831.28;;;21.41;59.77
71504;BME280;59323;50.874;7.028;2023-09-19T09:41:35;100831.84;;;21.65;58.75
71504;BME280;59323;50.874;7.028;2023-09-19T09:50:02;100822.94;;;21.99;57.13
71504;BME280;59323;50.874;7.028;2023-09-19T09:52:44;100825.94;;;21.92;56.43
71504;BME280;59323;50.874;7.028;2023-09-19T09:55:09;100825.47;;;21.81;56.96
71504;BME280;59323;50.874;7.028;2023-09-19T09:57:35;100824.44;;;21.75;58.73
71504;BME280;59323;50.874;7.028;2023-09-19T10:00:02;100826.88;;;21.73;58.81
71504;BME280;59323;50.874;7.028;2023-09-19T10:02:37;100829.06;;;21.65;58.67
71504;BME280;59323;50.874;7.028;2023-09-19T10:05:19;100819.13;;;21.39;59.81
71504;BME280;59323;50.874;7.028;2023-09-19T10:08:11;100825.19;;;21.34;59.32
71504;BME280;59323;50.874;7.028;2023-09-19T10:10:41;100812.22;;;21.31;59.25
71504;BME280;59323;50.874;7.028;2023-09-19T10:13:07;100826.53;;;21.42;58.15
71504;BME280;59323;50.874;7.028;2023-09-19T10:15:44;100827.91;;;21.50;58.72
71504;BME280;59323;50.874;7.028;2023-09-19T10:18:36;100808.81;;;21.56;57.95
71504;BME280;59323;50.874;7.028;2023-09-19T10:21:04;100818.34;;;21.67;57.67
71504;BME280;59323;50.874;7.028;2023-09-19T10:23:32;100802.16;;;21.53;57.98
71504;BME280;59323;50.874;7.028;2023-09-19T10:26:01;100798.06;;;21.58;58.97
71504;BME280;59323;50.874;7.028;2023-09-19T10:28:28;100801.66;;;21.71;57.70
71504;BME280;59323;50.874;7.028;2023-09-19T10:30:54;100795.03;;;21.81;57.35
71504;BME280;59323;50.874;7.028;2023-09-19T10:33:23;100794.72;;;21.92;55.70
71504;BME280;59323;50.874;7.028;2023-09-19T10:35:53;100790.78;;;22.05;56.40
71504;BME280;59323;50.874;7.028;2023-09-19T10:38:26;100797.34;;;22.24;56.54
71504;BME280;59323;50.874;7.028;2023-09-19T10:40:53;100807.09;;;22.29;54.47
71504;BME280;59323;50.874;7.028;2023-09-19T10:43:20;100796.13;;;22.25;54.42
71504;BME280;59323;50.874;7.028;2023-09-19T10:45:48;100803.88;;;22.30;55.10
71504;BME280;59323;50.874;7.028;2023-09-19T10:48:16;100797.66;;;22.39;56.41
71504;BME280;59323;50.874;7.028;2023-09-19T10:51:07;100805.97;;;22.39;54.93
71504;BME280;59323;50.874;7.028;2023-09-19T10:54:08;100812.84;;;22.34;54.41
71504;BME280;59323;50.874;7.028;2023-09-19T10:56:43;100803.31;;;22.23;54.39
71504;BME280;59323;50.874;7.028;2023-09-19T10:59:16;100802.66;;;22.19;55.67
71504;BME280;59323;50.874;7.028;2023-09-19T11:01:55;100796.38;;;22.02;54.41
71504;BME280;59323;50.874;7.028;2023-09-19T11:04:33;100795.97;;;22.03;54.61
71504;BME280;59323;50.874;7.028;2023-09-19T11:07:07;100791.53;;;22.06;54.19
71504;BME280;59323;50.874;7.028;2023-09-19T11:12:11;100790.91;;;22.27;54.00
71504;BME280;59323;50.874;7.028;2023-09-19T11:14:40;100791.34;;;22.26;53.76
71504;BME280;59323;50.874;7.028;2023-09-19T11:30:39;100793.47;;;22.34;53.14
71504;BME280;59323;50.874;7.028;2023-09-19T11:33:27;100788.38;;;22.33;52.72
71504;BME280;59323;50.874;7.028;2023-09-19T11:43:48;100803.53;;;22.16;53.44
71504;BME280;59323;50.874;7.028;2023-09-19T11:46:16;100795.53;;;22.05;52.23
71504;BME280;59323;50.874;7.028;2023-09-19T11:48:48;100787.97;;;21.93;51.96
71504;BME280;59323;50.874;7.028;2023-09-19T11:51:21;100795.50;;;21.92;52.82
71504;BME280;59323;50.874;7.028;2023-09-19T11:53:54;100804.03;;;21.98;51.67
71504;BME280;59323;50.874;7.028;2023-09-19T11:56:21;100800.81;;;21.99;51.26
71504;BME280;59323;50.874;7.028;2023-09-19T11:58:50;100796.63;;;22.07;51.66
71504;BME280;59323;50.874;7.028;2023-09-19T12:01:32;100807.31;;;22.22;51.60
71504;BME280;59323;50.874;7.028;2023-09-19T12:04:00;100813.84;;;22.28;50.66
71504;BME280;59323;50.874;7.028;2023-09-19T12:06:26;100804.31;;;22.29;50.54
71504;BME280;59323;50.874;7.028;2023-09-19T12:08:58;100802.53;;;22.35;50.78
71504;BME280;59323;50.874;7.028;2023-09-19T12:11:31;100793.25;;;22.29;50.07
71504;BME280;59323;50.874;7.028;2023-09-19T12:14:01;100788.81;;;22.31;50.07
71504;BME280;59323;50.874;7.028;2023-09-19T12:16:27;100793.78;;;22.36;49.96
71504;BME280;59323;50.874;7.028;2023-09-19T12:18:56;100810.94;;;22.44;49.44
71504;BME280;59323;50.874;7.028;2023-09-19T12:21:31;100803.88;;;22.43;49.87
71504;BME280;59323;50.874;7.028;2023-09-19T12:26:44;100789.25;;;22.30;49.78
71504;BME280;59323;50.874;7.028;2023-09-19T12:29:18;100789.59;;;22.32;49.18
71504;BME280;59323;50.874;7.028;2023-09-19T12:31:52;100792.91;;;22.27;49.35
71504;BME280;59323;50.874;7.028;2023-09-19T12:34:26;100792.56;;;22.25;50.41
71504;BME280;59323;50.874;7.028;2023-09-19T12:37:06;100787.91;;;22.22;49.36
71504;BME280;59323;50.874;7.028;2023-09-19T12:39:43;100784.72;;;22.23;49.21
71504;BME280;59323;50.874;7.028;2023-09-19T12:42:14;100780.63;;;22.15;49.81
71504;BME280;59323;50.874;7.028;2023-09-19T12:44:45;100777.41;;;22.17;49.00
71504;BME280;59323;50.874;7.028;2023-09-19T12:47:18;100783.59;;;22.21;49.21
71504;BME280;59323;50.874;7.028;2023-09-19T12:50:14;100783.16;;;22.22;50.03
71504;BME280;59323;50.874;7.028;2023-09-19T12:52:49;100770.31;;;22.16;50.46
71504;BME280;59323;50.874;7.028;2023-09-19T12:58:11;100775.28;;;22.33;50.55
71504;BME280;59323;50.874;7.028;2023-09-19T13:00:46;100772.84;;;22.35;50.33
71504;BME280;59323;50.874;7.028;2023-09-19T13:03:41;100748.16;;;22.28;48.18
71504;BME280;59323;50.874;7.028;2023-09-19T13:14:22;100756.47;;;22.16;50.32
71504;BME280;59323;50.874;7.028;2023-09-19T13:17:02;100757.22;;;22.03;50.75
71504;BME280;59323;50.874;7.028;2023-09-19T13:19:41;100759.31;;;21.99;51.50
71504;BME280;59323;50.874;7.028;2023-09-19T13:25:40;100744.78;;;21.95;51.19
71504;BME280;59323;50.874;7.028;2023-09-19T13:28:44;100731.28;;;21.84;52.47
71504;BME280;59323;50.874;7.028;2023-09-19T13:31:10;100746.22;;;21.87;51.03
71504;BME280;59323;50.874;7.028;2023-09-19T13:33:43;100743.91;;;21.86;50.58
71504;BME280;59323;50.874;7.028;2023-09-19T13:36:08;100725.19;;;21.77;50.45
71504;BME280;59323;50.874;7.028;2023-09-19T13:38:35;100736.25;;;21.77;50.75
71504;BME280;59323;50.874;7.028;2023-09-19T13:48:01;100742.78;;;21.70;52.08
71504;BME280;59323;50.874;7.028;2023-09-19T13:51:02;100740.13;;;21.67;50.82
71504;BME280;59323;50.874;7.028;2023-09-19T13:53:29;100742.69;;;21.74;51.01
71504;BME280;59323;50.874;7.028;2023-09-19T13:55:54;100731.38;;;21.68;51.80
71504;BME280;59323;50.874;7.028;2023-09-19T13:58:20;100745.66;;;21.67;51.76
71504;BME280;59323;50.874;7.028;2023-09-19T14:00:48;100733.16;;;21.62;51.51
71504;BME280;59323;50.874;7.028;2023-09-19T14:03:13;100731.72;;;21.70;51.18
71504;BME280;59323;50.874;7.028;2023-09-19T14:05:39;100721.75;;;21.60;52.68
71504;BME280;59323;50.874;7.028;2023-09-19T14:08:04;100734.81;;;21.72;51.89
71504;BME280;59323;50.874;7.028;2023-09-19T14:10:30;100730.28;;;21.66;51.24
71504;BME280;59323;50.874;7.028;2023-09-19T14:12:57;100734.91;;;21.56;51.26
71504;BME280;59323;50.874;7.028;2023-09-19T14:15:29;100730.25;;;21.53;51.42
71504;BME280;59323;50.874;7.028;2023-09-19T14:17:56;100747.41;;;21.61;51.57
71504;BME280;59323;50.874;7.028;2023-09-19T14:20:22;100742.44;;;21.56;51.62
71504;BME280;59323;50.874;7.028;2023-09-19T14:22:48;100737.28;;;21.41;51.30